Latest Weather Observations for Strathalbyn

IDS60901

Issued at 12:01 pm CDT Wednesday 29 March 2017 (issued every 10 minutes, with the page automatically refreshed every 10 minutes)

About weather observations | Map of Adelaide area stations | Latest observations for Adelaide area | Other Formats
Station Details ID: 024580 Name: STRATHALBYN RACECOURSE Lat: -35.28 Lon: 138.89 Height: 58.0 m
Data from the previous 72 hours. | See also: Recent months at Strathalbyn
Date/Time
CDT
Temp
°C
App
Temp
°C
Dew
Point
°C
Rel
Hum
%
Delta-T
°C
Wind Press
QNH
hPa
Press
MSL
hPa
Rain since
9am
mm
Dir  Spd
km/h
Gust
km/h
Spd
kts
Gust
kts
29/11:30am 21.5 16.6 12.4 56 5.2 NW 30 44 16 24 1010.1 1009.9 0.0
29/11:00am 20.9 15.7 11.5 55 5.2 NW 30 39 16 21 1010.3 1010.1 0.0
29/10:30am 20.8 17.2 11.7 56 5.1 NW 22 35 12 19 1010.3 1010.1 0.0
29/10:00am 20.4 17.4 12.4 60 4.5 NW 20 33 11 18 1010.5 1010.3 0.0
29/09:30am 19.1 16.0 12.1 64 3.9 NW 20 28 11 15 1010.5 1010.3 0.0
29/09:00am 18.0 15.9 12.5 70 3.1 NW 15 24 8 13 1010.6 1010.4 0.0
29/08:30am 17.0 16.0 12.3 74 2.6 NW 9 17 5 9 1010.7 1010.5 0.0
29/08:00am 15.2 14.9 12.7 85 1.4 NNE 6 9 3 5 1010.5 1010.3 0.0
29/07:30am 14.1 14.4 12.3 89 1.0 NE 2 9 1 5 1010.5 1010.3 0.0
29/07:00am 13.1 12.9 10.6 85 1.3 NNW 2 7 1 4 1010.3 1010.1 0.0
29/06:30am 13.6 12.7 11.5 87 1.1 NNE 7 11 4 6 1010.0 1009.8 0.0
29/06:00am 12.9 12.0 10.6 86 1.2 NNE 6 9 3 5 1009.9 1009.7 0.0
29/05:30am 12.9 11.1 10.8 87 1.1 NNW 11 15 6 8 1009.8 1009.6 0.0
29/05:00am 12.1 10.1 10.0 87 1.1 NNW 11 13 6 7 1010.0 1009.8 0.0
29/04:30am 12.3 10.3 10.2 87 1.1 NNW 11 15 6 8 1010.0 1009.8 0.0
29/04:00am 11.8 9.4 10.0 89 0.9 NNW 13 15 7 8 1010.3 1010.1 0.0
29/03:30am 11.5 9.4 9.6 88 1.0 NNW 11 13 6 7 1010.8 1010.7 0.0
29/03:00am 11.9 10.2 10.0 88 1.0 NNW 9 11 5 6 1010.9 1010.8 0.0
29/02:30am 12.1 10.1 10.2 88 1.0 NNW 11 13 6 7 1011.3 1011.2 0.0
29/02:00am 12.6 10.7 10.5 87 1.1 NNW 11 13 6 7 1011.5 1011.4 0.0
29/01:30am 12.6 11.1 10.5 87 1.1 NNW 9 11 5 6 1011.7 1011.6 0.0
29/01:00am 12.8 10.8 10.3 85 1.3 N 11 13 6 7 1012.0 1011.9 0.0
29/12:30am 13.3 11.2 11.0 86 1.2 NW 13 15 7 8 1012.4 1012.3 0.0
29/12:00am 13.2 11.3 10.6 84 1.4 NNW 11 13 6 7 1012.7 1012.6 0.0
 
Date/Time
CDT
Temp
°C
App
Temp
°C
Dew
Point
°C
Rel
Hum
%
Delta-T
°C
Wind Press
QNH
hPa
Press
MSL
hPa
Rain since
9am
mm
Dir  Spd
km/h
Gust
km/h
Spd
kts
Gust
kts
28/11:30pm 15.6 14.4 11.6 77 2.2 WNW 9 13 5 7 1012.8 1012.7 0.0
28/11:00pm 15.6 13.8 12.0 79 2.0 W 13 15 7 8 1013.1 1013.0 0.0
28/10:30pm 14.7 13.2 10.7 77 2.1 WNW 9 11 5 6 1013.2 1013.1 0.0
28/10:00pm 14.7 13.6 10.7 77 2.1 W 7 9 4 5 1013.3 1013.2 0.0
28/09:30pm 15.6 13.9 11.2 75 2.4 W 11 15 6 8 1013.2 1013.1 0.0
28/09:00pm 15.4 13.7 10.0 70 2.8 W 9 11 5 6 1013.0 1012.9 0.0
28/08:30pm 16.9 15.8 10.1 64 3.6 WSW 6 7 3 4 1012.8 1012.7 0.0
28/08:00pm 17.9 16.1 10.8 63 3.8 W 11 13 6 7 1012.5 1012.4 0.0
28/07:30pm 18.6 16.2 10.2 58 4.5 W 13 15 7 8 1012.5 1012.4 0.0
28/07:00pm 20.4 17.8 9.3 49 5.9 WNW 13 19 7 10 1012.4 1012.3 0.0
28/06:30pm 21.6 18.0 8.5 43 6.9 WNW 17 24 9 13 1012.4 1012.3 0.0
28/06:00pm 22.6 18.4 8.3 40 7.6 WNW 20 28 11 15 1012.3 1012.2 0.0
28/05:30pm 23.2 19.4 7.7 37 8.1 WNW 17 24 9 13 1012.2 1012.1 0.0
28/05:00pm 23.8 20.3 7.0 34 8.7 NW 15 24 8 13 1012.3 1012.2 0.0
28/04:30pm 23.8 20.5 8.2 37 8.3 NW 15 24 8 13 1012.5 1012.4 0.0
28/04:00pm 23.6 19.7 8.5 38 8.1 NW 19 28 10 15 1012.7 1012.6 0.0
28/03:30pm 24.1 20.6 8.9 38 8.2 WNW 17 28 9 15 1012.8 1012.7 0.0
28/03:00pm 23.8 20.0 9.0 39 8.0 NW 19 26 10 14 1013.1 1013.0 0.0
28/02:30pm 23.0 18.9 7.9 38 7.9 WNW 19 26 10 14 1013.5 1013.4 0.0
28/02:00pm 23.5 20.8 8.8 39 7.9 WNW 13 24 7 13 1013.9 1013.8 0.0
28/01:30pm 22.6 19.1 8.7 41 7.4 WNW 17 30 9 16 1014.3 1014.2 0.0
28/01:00pm 22.4 19.0 9.2 43 7.1 WNW 17 26 9 14 1014.8 1014.7 0.0
28/12:30pm 22.0 18.0 8.9 43 7.0 WNW 20 28 11 15 1015.4 1015.3 0.0
28/12:00pm 21.3 17.4 9.5 47 6.3 W 20 30 11 16 1015.6 1015.5 0.0
28/11:30am 20.8 16.7 8.8 46 6.3 WNW 20 32 11 17 1015.8 1015.7 0.0
28/11:00am 19.9 18.7 10.3 54 5.2 WSW 7 11 4 6 1016.0 1015.9 0.0
28/10:30am 19.0 18.5 12.0 64 3.9 E 6 9 3 5 1016.1 1016.0 0.0
28/10:00am 18.0 18.6 12.0 68 3.3 CALM 0 0 0 0 1016.3 1016.2 0.0
28/09:30am 17.3 16.5 11.8 70 3.0 N 7 9 4 5 1016.0 1015.9 0.0
28/09:00am 16.6 16.0 11.7 73 2.7 NNW 6 11 3 6 1016.0 1015.9 0.2
28/08:30am 15.6 14.1 11.8 78 2.1 NW 11 15 6 8 1015.8 1015.7 0.2
28/08:00am 12.8 11.0 10.7 87 1.1 NNW 11 15 6 8 1015.6 1015.5 0.2
28/07:30am 12.1 9.7 10.2 88 1.0 N 13 15 7 8 1015.4 1015.3 0.2
28/07:00am 11.6 10.8 9.7 88 1.0 NNE 4 11 2 6 1015.1 1015.0 0.2
28/06:30am 12.1 11.1 10.2 88 1.0 N 6 11 3 6 1015.0 1014.9 0.2
28/06:00am 11.9 9.8 9.6 86 1.2 NW 11 15 6 8 1015.0 1014.9 0.2
28/05:30am 12.5 11.2 10.0 85 1.3 NW 7 9 4 5 1014.9 1014.8 0.2
28/05:00am 13.0 11.9 10.0 82 1.5 N 6 9 3 5 1015.0 1014.9 0.2
28/04:30am 14.4 13.4 11.0 80 1.8 NW 7 11 4 6 1015.1 1015.0 0.2
28/04:00am 14.8 13.2 11.4 80 1.8 NNW 11 13 6 7 1015.5 1015.4 0.2
28/03:30am 15.1 13.8 11.3 78 2.0 NNW 9 11 5 6 1015.6 1015.5 0.2
28/03:00am 15.1 13.5 11.5 79 1.9 NNW 11 13 6 7 1015.8 1015.7 0.2
28/02:30am 14.7 13.4 11.3 80 1.8 NNW 9 11 5 6 1015.8 1015.7 0.2
28/02:00am 14.6 13.3 11.2 80 1.8 NNW 9 11 5 6 1016.0 1015.9 0.2
28/01:30am 14.9 13.9 11.1 78 2.0 NW 7 9 4 5 1016.0 1015.9 0.2
28/01:00am 14.8 13.9 11.4 80 1.8 NW 7 9 4 5 1016.2 1016.1 0.2
28/12:30am 14.9 14.0 11.5 80 1.8 NW 7 9 4 5 1016.2 1016.1 0.2
28/12:00am 14.6 13.6 11.0 79 1.9 NNW 7 11 4 6 1016.1 1016.0 0.2
 
Date/Time
CDT
Temp
°C
App
Temp
°C
Dew
Point
°C
Rel
Hum
%
Delta-T
°C
Wind Press
QNH
hPa
Press
MSL
hPa
Rain since
9am
mm
Dir  Spd
km/h
Gust
km/h
Spd
kts
Gust
kts
27/11:30pm 14.9 15.3 11.1 78 2.0 CALM 0 0 0 0 1016.1 1016.0 0.2
27/11:00pm 14.9 13.6 11.1 78 2.0 NE 9 15 5 8 1016.0 1015.9 0.2
27/10:30pm 15.1 15.4 10.9 76 2.2 CALM 0 0 0 0 1015.9 1015.8 0.2
27/10:00pm 15.5 15.8 10.9 74 2.5 CALM 0 0 0 0 1015.8 1015.7 0.2
27/09:30pm 16.5 15.1 11.0 70 3.0 SW 9 13 5 7 1015.8 1015.7 0.2
27/09:00pm 17.0 17.0 11.1 68 3.2 S 2 6 1 3 1015.6 1015.5 0.2
27/08:30pm 18.0 15.7 11.6 66 3.5 WNW 15 19 8 10 1015.2 1015.1 0.2
27/08:00pm 18.0 15.2 11.3 65 3.7 WNW 17 20 9 11 1014.8 1014.7 0.2
27/07:30pm 18.4 15.9 11.0 62 4.0 W 15 22 8 12 1014.8 1014.7 0.2
27/07:00pm 19.4 15.9 10.9 58 4.6 W 20 28 11 15 1014.8 1014.7 0.2
27/06:30pm 20.4 16.9 10.8 54 5.2 W 20 28 11 15 1014.5 1014.4 0.2
27/06:00pm 21.2 16.7 10.1 49 6.0 WNW 24 33 13 18 1014.1 1014.0 0.2
27/05:30pm 22.2 18.0 9.7 45 6.8 W 22 30 12 16 1014.0 1013.9 0.2
27/05:00pm 22.2 17.6 9.7 45 6.8 W 24 33 13 18 1013.8 1013.7 0.2
27/04:30pm 22.1 16.9 8.9 43 7.0 W 26 37 14 20 1013.7 1013.6 0.2
27/04:00pm 22.4 17.4 9.6 44 6.9 W 26 37 14 20 1013.6 1013.5 0.2
27/03:30pm 23.2 18.4 8.9 40 7.7 W 24 35 13 19 1013.5 1013.4 0.2
27/03:06pm 22.9 17.0 9.0 41 7.5 W 30 48 16 26 1013.5 1013.4 0.2
27/03:00pm 22.5 16.5 8.6 41 7.4 W 30 43 16 23 1013.6 1013.5 0.2
27/02:30pm 23.1 16.4 8.0 38 8.0 W 33 48 18 26 1013.5 1013.4 0.2
27/02:00pm 22.8 15.7 8.1 39 7.8 W 35 46 19 25 1013.6 1013.5 0.2
27/01:40pm 23.1 17.4 8.4 39 7.8 WSW 28 48 15 26 1013.5 1013.4 0.2
27/01:30pm 22.5 15.1 6.7 36 8.1 W 35 46 19 25 1013.4 1013.3 0.2
27/01:00pm 22.8 15.9 8.9 41 7.4 W 35 48 19 26 1013.7 1013.6 0.2
27/12:30pm 22.4 16.2 10.2 46 6.7 WSW 33 50 18 27 1014.3 1014.2 0.2
27/12:17pm 21.5 15.1 10.6 50 6.0 W 35 54 19 29 1014.1 1014.0 0.2
27/12:00pm 20.9 15.4 11.8 56 5.1 W 32 46 17 25 1014.1 1014.0 0.2
27/11:30am 19.8 14.7 11.8 60 4.4 W 30 46 16 25 1013.8 1013.7 0.2
27/11:26am 20.0 15.2 11.8 59 4.6 W 28 46 15 25 1014.0 1013.9 0.2
27/11:00am 18.6 15.3 12.8 69 3.3 W 22 30 12 16 1013.5 1013.4 0.2
27/10:30am 18.4 14.2 12.4 68 3.3 W 26 37 14 20 1013.3 1013.2 0.0
27/10:00am 21.0 14.3 11.1 53 5.5 W 37 57 20 31 1012.9 1012.8 0.0
27/09:36am 20.8 13.6 10.6 52 5.6 W 39 57 21 31 1011.9 1011.8 0.0
27/09:30am 21.1 13.7 11.2 53 5.5 W 41 57 22 31 1011.8 1011.7 0.0
27/09:01am 21.0 14.2 11.9 56 5.1 W 39 59 21 32 1010.8 1010.7 0.0
27/09:00am 20.9 14.2 12.3 58 4.9 W 39 56 21 30 1010.8 1010.7 0.0
27/08:30am 20.7 16.2 13.9 65 3.9 W 30 48 16 26 1010.6 1010.4 0.0
27/08:28am 20.7 16.2 13.9 65 3.9 W 30 48 16 26 1010.7 1010.5 0.0
27/08:00am 20.6 18.7 15.8 74 2.9 WNW 20 32 11 17 1009.8 1009.6 0.0
27/07:30am 20.7 19.9 16.1 75 2.8 W 15 20 8 11 1009.0 1008.8 0.0
27/07:00am 20.6 20.7 16.4 77 2.5 WSW 11 19 6 10 1008.8 1008.6 0.0
27/06:30am 21.1 20.4 16.5 75 2.8 WSW 15 24 8 13 1008.3 1008.1 0.0
27/06:00am 21.4 20.9 17.0 76 2.7 W 15 24 8 13 1007.9 1007.7 0.0
27/05:30am 21.7 20.0 17.3 76 2.7 WNW 22 32 12 17 1006.8 1006.6 0.0
27/05:00am 22.3 20.1 16.8 71 3.4 WNW 24 39 13 21 1005.4 1005.2 0.0
27/04:30am 23.9 19.5 15.7 60 5.0 WNW 33 46 18 25 1004.0 1003.8 0.0
27/04:00am 27.3 20.3 13.6 43 8.1 NW 43 57 23 31 1003.4 1003.2 0.0
27/03:59am 27.8 20.4 13.0 40 8.7 NW 44 57 24 31 1003.2 1003.0 0.0
27/03:42am 32.8 27.1 8.3 22 13.7 NNW 28 59 15 32 1002.7 1002.5 0.0
27/03:30am 31.8 27.0 8.7 24 13.0 NNW 24 35 13 19 1002.5 1002.3 0.0
27/03:00am 31.1 27.4 9.3 26 12.3 N 19 26 10 14 1001.8 1001.7 0.0
27/02:30am 30.0 27.9 11.0 31 11.0 N 13 20 7 11 1002.3 1002.1 0.0
27/02:00am 30.3 26.9 11.3 31 11.0 N 20 28 11 15 1002.6 1002.4 0.0
27/01:30am 30.7 25.5 11.6 31 11.2 NNE 30 46 16 25 1003.0 1002.8 0.0
27/01:00am 30.5 25.8 11.9 31 10.9 NNE 28 41 15 22 1003.5 1003.3 0.0
27/12:30am 30.6 25.9 12.0 32 10.9 NNE 28 39 15 21 1004.1 1003.9 0.0
27/12:00am 30.8 26.9 12.2 32 11.0 NNE 24 35 13 19 1004.8 1004.6 0.0
 
Date/Time
CDT
Temp
°C
App
Temp
°C
Dew
Point
°C
Rel
Hum
%
Delta-T
°C
Wind Press
QNH
hPa
Press
MSL
hPa
Rain since
9am
mm
Dir  Spd
km/h
Gust
km/h
Spd
kts
Gust
kts
26/11:30pm 30.8 27.3 12.2 32 11.0 NNE 22 32 12 17 1005.5 1005.3 0.0
26/11:00pm 30.5 27.5 12.4 33 10.7 NNE 20 28 11 15 1006.1 1005.9 0.0
26/10:30pm 30.5 27.6 12.4 33 10.7 NNE 19 24 10 13 1006.5 1006.3 0.0
26/10:00pm 28.5 27.6 13.6 40 8.9 N 11 15 6 8 1006.8 1006.6 0.0
26/09:30pm 26.7 26.1 14.5 47 7.3 N 11 11 6 6 1006.9 1006.7 0.0
26/09:00pm 26.4 25.9 14.8 49 7.0 N 11 13 6 7 1007.1 1006.9 0.0
26/08:30pm 26.7 26.5 15.7 51 6.7 N 11 13 6 7 1007.2 1007.0 0.0
26/08:00pm 26.5 26.8 16.1 52 6.4 NNW 9 13 5 7 1007.2 1007.0 0.0
26/07:30pm 26.7 27.9 16.0 52 6.6 NNW 4 9 2 5 1007.1 1006.9 0.0
26/07:00pm 28.2 30.2 16.1 47 7.5 CALM 0 0 0 0 1007.2 1007.0 0.0
26/06:30pm 29.2 29.6 15.3 42 8.5 ESE 7 11 4 6 1007.2 1007.0 0.0
26/06:00pm 29.8 29.0 15.1 40 9.0 E 13 17 7 9 1007.1 1006.9 0.0
26/05:30pm 30.0 28.5 15.3 41 9.1 E 17 20 9 11 1007.4 1007.2 0.0
26/05:00pm 30.0 29.8 15.7 42 8.9 E 11 17 6 9 1008.2 1008.0 0.0
26/04:30pm 30.0 29.9 16.1 43 8.7 SE 11 17 6 9 1008.7 1008.5 0.0
26/04:00pm 29.9 29.4 14.8 39 9.2 SE 11 17 6 9 1009.0 1008.8 0.0
26/03:30pm 30.2 30.6 16.2 42 8.8 SSE 9 13 5 7 1009.4 1009.2 0.0
26/03:00pm 29.5 29.6 14.5 40 9.1 ESE 7 15 4 8 1010.0 1009.8 0.0
26/02:30pm 28.7 28.3 15.2 43 8.3 ENE 11 17 6 9 1010.2 1010.0 0.0
26/02:00pm 27.0 26.4 15.7 50 6.9 ENE 13 19 7 10 1010.6 1010.4 0.0
26/01:30pm 26.4 27.0 15.8 52 6.5 SE 7 11 4 6 1011.6 1011.5 0.0
26/01:00pm 25.3 26.5 15.9 56 5.7 NE 4 11 2 6 1012.0 1011.9 0.0
26/12:30pm 24.9 24.8 16.1 58 5.4 NE 11 15 6 8 1012.3 1012.2 0.0

Latest Capital City Observations: Canberra | Sydney | Melbourne | Brisbane | Adelaide | Perth | Hobart | Darwin

Other Formats:

Comma delimited format used in spreadsheet applications
http://www.bom.gov.au/fwo/IDS60901/IDS60901.94814.axf

JavaScript Object Notation format (JSON) in row-major order
http://www.bom.gov.au/fwo/IDS60901/IDS60901.94814.json